Time;durP1;ratioP1;P1;durP2;ratioP2;P2;SDS_P1;SDS_P2;PMS_P1;PMS_P2;Temp;Humidity;BMP_temperature;BMP_pressure;BME280_temperature;BME280_humidity;BME280_pressure;Samples;Min_cycle;Max_cycle;Signal;HPM_P1;HPM_P2
2023/09/17 00:00:40;;;;;;;11.53;9.60;;;;;;;;;;5021257;28;20411;-56
2023/09/17 00:03:05;;;;;;;11.27;9.50;;;;;;;;;;5019078;28;20426;-56
2023/09/17 00:05:32;;;;;;;11.97;9.50;;;;;;;;;;5021891;28;20429;-56
2023/09/17 00:07:57;;;;;;;12.57;9.43;;;;;;;;;;5021929;28;20407;-56
2023/09/17 00:10:22;;;;;;;12.43;10.17;;;;;;;;;;5017845;28;21154;-56
2023/09/17 00:12:48;;;;;;;12.40;10.25;;;;;;;;;;5022476;28;20482;-56
2023/09/17 00:15:13;;;;;;;12.03;10.73;;;;;;;;;;5020415;28;20407;-56
2023/09/17 00:17:39;;;;;;;12.83;11.27;;;;;;;;;;5017231;28;20925;-57
2023/09/17 00:20:07;;;;;;;14.20;11.33;;;;;;;;;;5022245;28;20951;-57
2023/09/17 00:22:32;;;;;;;13.07;11.68;;;;;;;;;;5022810;28;20419;-56
2023/09/17 00:24:57;;;;;;;13.47;11.17;;;;;;;;;;5021453;28;20411;-57
2023/09/17 00:27:23;;;;;;;13.00;11.70;;;;;;;;;;5020166;28;20539;-56
2023/09/17 00:29:48;;;;;;;12.70;11.30;;;;;;;;;;5022775;28;20435;-56
2023/09/17 00:32:13;;;;;;;13.90;12.03;;;;;;;;;;5022638;28;20932;-56
2023/09/17 00:34:38;;;;;;;13.25;11.52;;;;;;;;;;5018610;28;20407;-56
2023/09/17 00:37:04;;;;;;;14.25;11.80;;;;;;;;;;5021892;28;20419;-56
2023/09/17 00:39:29;;;;;;;13.47;11.20;;;;;;;;;;5023233;28;20456;-57
2023/09/17 00:41:55;;;;;;;13.83;11.90;;;;;;;;;;5019877;28;20824;-57
2023/09/17 00:44:20;;;;;;;14.33;11.90;;;;;;;;;;5026984;28;20407;-56
2023/09/17 00:46:45;;;;;;;14.90;12.47;;;;;;;;;;5030357;28;20498;-56
2023/09/17 00:49:13;;;;;;;13.40;12.00;;;;;;;;;;5017145;28;20758;-56
2023/09/17 00:51:39;;;;;;;14.55;11.93;;;;;;;;;;5023612;28;20417;-56
2023/09/17 00:54:04;;;;;;;13.30;11.43;;;;;;;;;;5021640;28;20403;-56
2023/09/17 00:56:30;;;;;;;13.68;11.95;;;;;;;;;;5017333;28;20425;-56
2023/09/17 00:58:55;;;;;;;15.63;12.30;;;;;;;;;;5020917;28;20407;-57
2023/09/17 01:01:20;;;;;;;13.07;11.67;;;;;;;;;;5021711;28;20761;-56
2023/09/17 01:03:46;;;;;;;13.90;12.00;;;;;;;;;;5020099;28;20415;-56
2023/09/17 01:06:11;;;;;;;15.47;11.93;;;;;;;;;;5023297;28;20433;-56
2023/09/17 01:08:37;;;;;;;13.47;11.30;;;;;;;;;;5025806;28;20883;-56
2023/09/17 01:11:02;;;;;;;12.63;11.25;;;;;;;;;;5026009;28;20415;-56
2023/09/17 01:13:28;;;;;;;13.00;11.70;;;;;;;;;;5021233;28;20416;-56
2023/09/17 01:15:54;;;;;;;12.77;11.10;;;;;;;;;;4988336;28;20404;-56
2023/09/17 01:18:21;;;;;;;14.33;11.70;;;;;;;;;;4990441;28;20418;-57
2023/09/17 01:20:52;;;;;;;14.40;12.17;;;;;;;;;;4995190;28;20459;-57
2023/09/17 01:23:23;;;;;;;16.25;12.73;;;;;;;;;;4996555;28;20992;-57
2023/09/17 01:25:49;;;;;;;15.13;12.47;;;;;;;;;;4991257;28;20438;-57
2023/09/17 01:28:15;;;;;;;16.85;13.48;;;;;;;;;;4992201;28;20402;-57
2023/09/17 01:30:41;;;;;;;15.90;12.75;;;;;;;;;;4997279;28;21162;-57
2023/09/17 01:33:09;;;;;;;17.95;13.55;;;;;;;;;;4992454;28;20404;-57
2023/09/17 01:35:35;;;;;;;16.90;13.98;;;;;;;;;;4977539;28;20399;-57
2023/09/17 01:38:00;;;;;;;16.50;12.80;;;;;;;;;;4982353;28;20408;-57
2023/09/17 01:40:26;;;;;;;17.77;15.43;;;;;;;;;;4989397;28;20410;-57
2023/09/17 01:42:52;;;;;;;17.13;14.32;;;;;;;;;;4996280;28;21003;-57
2023/09/17 01:45:17;;;;;;;17.97;15.93;;;;;;;;;;4991204;28;20505;-57
2023/09/17 01:47:43;;;;;;;16.03;14.10;;;;;;;;;;4987901;28;20429;-57
2023/09/17 01:50:08;;;;;;;17.10;15.30;;;;;;;;;;4995526;28;20501;-57
2023/09/17 01:52:34;;;;;;;17.93;15.30;;;;;;;;;;4990364;28;20410;-57
2023/09/17 01:55:01;;;;;;;17.08;14.57;;;;;;;;;;4987156;28;20403;-57
2023/09/17 01:57:26;;;;;;;16.83;14.48;;;;;;;;;;4991908;28;20394;-57
2023/09/17 01:59:51;;;;;;;18.40;15.77;;;;;;;;;;4986103;28;20403;-57
2023/09/17 02:02:16;;;;;;;17.90;16.10;;;;;;;;;;5002597;28;21167;-57
2023/09/17 02:04:42;;;;;;;17.53;14.50;;;;;;;;;;4996547;28;20398;-57
2023/09/17 02:07:07;;;;;;;17.53;15.27;;;;;;;;;;4993288;28;20452;-57
2023/09/17 02:09:33;;;;;;;16.45;14.50;;;;;;;;;;4989857;28;20828;-57
2023/09/17 02:11:58;;;;;;;16.80;14.53;;;;;;;;;;4991107;28;20418;-57
2023/09/17 02:14:23;;;;;;;16.37;14.50;;;;;;;;;;4994642;28;20403;-57
2023/09/17 02:16:50;;;;;;;18.13;15.17;;;;;;;;;;5003103;28;20526;-57
2023/09/17 02:19:16;;;;;;;17.25;15.48;;;;;;;;;;5022906;28;20403;-57
2023/09/17 02:21:41;;;;;;;16.40;14.60;;;;;;;;;;5023260;28;20400;-57
2023/09/17 02:24:07;;;;;;;15.83;13.60;;;;;;;;;;5020686;28;20396;-57
2023/09/17 02:26:32;;;;;;;17.52;15.55;;;;;;;;;;5025051;28;20461;-57
2023/09/17 02:28:58;;;;;;;17.43;15.63;;;;;;;;;;5024742;28;20778;-57
2023/09/17 02:31:24;;;;;;;17.97;15.67;;;;;;;;;;5028326;28;20410;-57
2023/09/17 02:33:49;;;;;;;18.02;16.20;;;;;;;;;;5033553;28;20746;-57
2023/09/17 02:36:14;;;;;;;17.53;15.33;;;;;;;;;;5034562;28;20403;-57
2023/09/17 02:38:41;;;;;;;17.30;15.23;;;;;;;;;;5032968;28;20737;-57
2023/09/17 02:41:06;;;;;;;16.50;14.48;;;;;;;;;;5034778;28;20604;-57
2023/09/17 02:43:31;;;;;;;16.10;14.30;;;;;;;;;;5031767;28;20417;-57
2023/09/17 02:45:57;;;;;;;16.33;14.33;;;;;;;;;;5039067;28;20980;-57
2023/09/17 02:48:22;;;;;;;16.80;14.13;;;;;;;;;;5030082;28;20414;-57
2023/09/17 02:50:47;;;;;;;14.40;12.48;;;;;;;;;;5032530;28;20925;-56
2023/09/17 02:53:13;;;;;;;14.67;12.87;;;;;;;;;;5034525;28;20533;-56
2023/09/17 02:55:39;;;;;;;14.47;12.90;;;;;;;;;;5031670;28;20407;-57
2023/09/17 02:58:04;;;;;;;15.10;13.52;;;;;;;;;;5034955;28;20412;-57
2023/09/17 03:00:30;;;;;;;13.87;12.40;;;;;;;;;;5033407;28;20395;-57
2023/09/17 03:02:55;;;;;;;16.35;14.73;;;;;;;;;;5029825;28;20461;-57
2023/09/17 03:05:21;;;;;;;15.68;12.93;;;;;;;;;;5032918;28;20398;-57
2023/09/17 03:07:46;;;;;;;14.40;12.80;;;;;;;;;;5030576;28;20995;-56
2023/09/17 03:10:12;;;;;;;16.33;14.07;;;;;;;;;;5022978;28;20419;-56
2023/09/17 03:12:39;;;;;;;15.00;13.18;;;;;;;;;;5020636;28;20805;-57
2023/09/17 03:15:05;;;;;;;15.68;13.98;;;;;;;;;;5021954;28;20491;-57
2023/09/17 03:17:31;;;;;;;15.75;13.23;;;;;;;;;;5030922;28;20931;-56
2023/09/17 03:19:57;;;;;;;15.63;14.02;;;;;;;;;;5006159;28;20435;-56
2023/09/17 03:22:22;;;;;;;15.50;13.87;;;;;;;;;;4983446;28;20412;-56
2023/09/17 03:24:48;;;;;;;15.10;13.50;;;;;;;;;;4981858;28;20434;-57
2023/09/17 03:27:13;;;;;;;15.98;13.38;;;;;;;;;;4986003;28;20423;-57
2023/09/17 03:29:39;;;;;;;15.67;13.50;;;;;;;;;;4993313;28;20691;-56
2023/09/17 03:32:04;;;;;;;16.43;14.67;;;;;;;;;;4989747;28;20408;-57
2023/09/17 03:34:29;;;;;;;14.18;12.10;;;;;;;;;;4991784;28;20411;-57
2023/09/17 03:36:55;;;;;;;15.07;12.90;;;;;;;;;;4994134;28;20499;-57
2023/09/17 03:39:20;;;;;;;13.23;11.83;;;;;;;;;;4989118;28;20783;-56
2023/09/17 03:41:45;;;;;;;14.07;12.47;;;;;;;;;;4989154;28;20406;-57
2023/09/17 03:44:11;;;;;;;14.47;12.70;;;;;;;;;;4984775;28;20433;-57
2023/09/17 03:46:37;;;;;;;16.07;13.77;;;;;;;;;;4980462;28;20502;-57
2023/09/17 03:49:02;;;;;;;15.43;13.13;;;;;;;;;;4980883;28;20403;-57
2023/09/17 03:51:28;;;;;;;14.57;13.00;;;;;;;;;;4989616;28;20770;-56
2023/09/17 03:53:54;;;;;;;17.10;14.80;;;;;;;;;;4991090;28;20409;-56
2023/09/17 03:56:19;;;;;;;15.68;13.93;;;;;;;;;;4985937;28;22115;-57
2023/09/17 03:58:45;;;;;;;17.07;14.50;;;;;;;;;;4989697;28;20438;-56
2023/09/17 04:01:10;;;;;;;16.27;14.57;;;;;;;;;;4992025;28;21047;-56
2023/09/17 04:03:36;;;;;;;17.57;15.13;;;;;;;;;;4988492;28;20441;-57
2023/09/17 04:06:04;;;;;;;17.98;16.08;;;;;;;;;;4984498;28;20473;-57
2023/09/17 04:08:30;;;;;;;18.42;16.42;;;;;;;;;;4986229;28;20762;-57
2023/09/17 04:10:55;;;;;;;16.00;13.70;;;;;;;;;;4982112;28;20925;-57
2023/09/17 04:13:20;;;;;;;17.33;15.47;;;;;;;;;;4999205;28;20479;-57
2023/09/17 04:15:46;;;;;;;17.00;15.20;;;;;;;;;;4998627;28;20926;-57
2023/09/17 04:18:11;;;;;;;17.02;15.13;;;;;;;;;;4988281;28;20422;-57
2023/09/17 04:20:36;;;;;;;19.25;17.00;;;;;;;;;;4991016;28;20498;-57
2023/09/17 04:23:03;;;;;;;21.60;17.90;;;;;;;;;;4987989;28;20403;-58
2023/09/17 04:25:29;;;;;;;20.17;17.60;;;;;;;;;;4990288;28;20406;-57
2023/09/17 04:27:55;;;;;;;22.23;19.40;;;;;;;;;;4989082;28;20421;-57
2023/09/17 04:30:20;;;;;;;20.37;17.07;;;;;;;;;;4980414;28;20404;-57
2023/09/17 04:32:46;;;;;;;20.00;17.17;;;;;;;;;;4982125;28;20402;-57
2023/09/17 04:35:11;;;;;;;19.05;17.05;;;;;;;;;;4984736;28;20428;-57
2023/09/17 04:37:37;;;;;;;21.90;18.60;;;;;;;;;;4989067;28;20909;-57
2023/09/17 04:40:08;;;;;;;20.30;17.33;;;;;;;;;;4994211;28;20918;-57
2023/09/17 04:42:33;;;;;;;24.13;19.53;;;;;;;;;;5010235;28;20814;-57
2023/09/17 04:44:59;;;;;;;21.05;17.85;;;;;;;;;;4992599;28;21029;-57
2023/09/17 04:47:25;;;;;;;21.63;19.30;;;;;;;;;;4986308;28;20438;-57
2023/09/17 04:49:50;;;;;;;25.77;21.13;;;;;;;;;;4989698;28;20488;-57
2023/09/17 04:52:15;;;;;;;26.97;21.77;;;;;;;;;;4992247;28;20403;-57
2023/09/17 04:54:40;;;;;;;22.90;20.08;;;;;;;;;;4981507;28;20407;-57
2023/09/17 04:57:07;;;;;;;20.83;18.33;;;;;;;;;;4979499;28;21279;-57
2023/09/17 04:59:32;;;;;;;23.65;20.13;;;;;;;;;;4981690;28;20437;-57
2023/09/17 05:01:58;;;;;;;24.73;20.23;;;;;;;;;;4989706;28;20411;-57
2023/09/17 05:04:24;;;;;;;25.00;21.23;;;;;;;;;;4988161;28;20416;-57
2023/09/17 05:06:49;;;;;;;23.50;19.80;;;;;;;;;;4989400;28;20469;-57
2023/09/17 05:09:15;;;;;;;23.65;20.23;;;;;;;;;;4993878;28;20977;-57
2023/09/17 05:11:40;;;;;;;22.95;19.52;;;;;;;;;;4986655;28;20534;-57
2023/09/17 05:14:06;;;;;;;21.67;18.17;;;;;;;;;;4988316;28;20403;-57
2023/09/17 05:16:31;;;;;;;26.27;21.90;;;;;;;;;;4985313;28;20718;-57
2023/09/17 05:18:56;;;;;;;24.42;20.48;;;;;;;;;;4984933;28;20407;-57
2023/09/17 05:21:22;;;;;;;25.57;20.77;;;;;;;;;;4979992;28;20414;-57
2023/09/17 05:23:47;;;;;;;28.00;22.60;;;;;;;;;;4996194;28;20747;-57
2023/09/17 05:26:12;;;;;;;28.80;21.87;;;;;;;;;;5005018;28;20933;-57
2023/09/17 05:28:38;;;;;;;24.50;19.70;;;;;;;;;;5000666;28;20393;-57
2023/09/17 05:31:03;;;;;;;25.30;20.83;;;;;;;;;;5008481;28;20407;-58
2023/09/17 05:33:29;;;;;;;25.73;21.17;;;;;;;;;;5007164;28;20955;-57
2023/09/17 05:35:56;;;;;;;25.83;19.67;;;;;;;;;;5004230;28;20405;-57
2023/09/17 05:38:22;;;;;;;27.77;20.67;;;;;;;;;;4996463;28;20904;-58
2023/09/17 05:40:47;;;;;;;25.93;20.20;;;;;;;;;;4996180;28;20421;-57
2023/09/17 05:43:12;;;;;;;27.10;21.13;;;;;;;;;;4998442;28;20779;-58
2023/09/17 05:45:39;;;;;;;30.30;22.97;;;;;;;;;;5001527;28;20417;-57
2023/09/17 05:48:04;;;;;;;26.65;21.40;;;;;;;;;;5005883;28;20420;-58
2023/09/17 05:50:29;;;;;;;27.77;21.47;;;;;;;;;;5011446;28;20405;-57
2023/09/17 05:52:55;;;;;;;26.90;20.20;;;;;;;;;;5011797;28;20935;-57
2023/09/17 05:55:20;;;;;;;25.03;20.63;;;;;;;;;;5009920;28;20560;-57
2023/09/17 05:57:46;;;;;;;25.30;20.77;;;;;;;;;;5001897;28;20411;-57
2023/09/17 06:00:11;;;;;;;24.88;20.15;;;;;;;;;;4998815;28;20970;-57
2023/09/17 06:02:37;;;;;;;21.50;18.57;;;;;;;;;;4997698;28;20532;-57
2023/09/17 06:05:03;;;;;;;21.15;17.48;;;;;;;;;;4997517;28;21017;-58
2023/09/17 06:07:28;;;;;;;21.17;17.10;;;;;;;;;;4991373;28;21149;-57
2023/09/17 06:09:53;;;;;;;20.07;16.53;;;;;;;;;;4989896;28;20422;-57
2023/09/17 06:12:19;;;;;;;18.27;14.68;;;;;;;;;;4992920;28;20405;-56
2023/09/17 06:14:44;;;;;;;19.60;16.13;;;;;;;;;;4994196;28;20780;-57
2023/09/17 06:17:10;;;;;;;20.17;16.83;;;;;;;;;;4991588;28;20575;-57
2023/09/17 06:19:37;;;;;;;18.33;14.80;;;;;;;;;;4990033;28;20494;-57
2023/09/17 06:22:03;;;;;;;17.77;14.07;;;;;;;;;;5012280;28;20408;-57
2023/09/17 06:24:28;;;;;;;18.30;14.67;;;;;;;;;;5025753;28;20461;-57
2023/09/17 06:26:53;;;;;;;18.23;15.03;;;;;;;;;;5033589;28;20421;-57
2023/09/17 06:29:19;;;;;;;16.27;13.70;;;;;;;;;;5030593;28;20391;-57
2023/09/17 06:31:44;;;;;;;16.80;13.70;;;;;;;;;;5031033;28;20410;-57
2023/09/17 06:34:09;;;;;;;15.73;12.50;;;;;;;;;;5034312;28;20405;-56
2023/09/17 06:36:35;;;;;;;14.53;12.67;;;;;;;;;;5031885;28;20391;-56
2023/09/17 06:39:00;;;;;;;17.23;12.95;;;;;;;;;;5019231;28;20441;-56
2023/09/17 06:41:26;;;;;;;15.77;13.27;;;;;;;;;;5036274;28;20459;-57
2023/09/17 06:43:51;;;;;;;16.63;12.20;;;;;;;;;;5035547;28;20500;-57
2023/09/17 06:46:16;;;;;;;13.25;11.00;;;;;;;;;;5036731;28;20516;-57
2023/09/17 06:48:42;;;;;;;13.85;11.57;;;;;;;;;;5032697;28;20828;-57
2023/09/17 06:51:07;;;;;;;14.90;11.30;;;;;;;;;;5033084;28;20799;-56
2023/09/17 06:53:33;;;;;;;13.53;9.83;;;;;;;;;;5035430;28;20881;-57
2023/09/17 06:55:58;;;;;;;13.30;10.33;;;;;;;;;;5034921;28;20409;-56
2023/09/17 06:58:23;;;;;;;13.47;11.23;;;;;;;;;;5030094;28;20450;-57
2023/09/17 07:00:48;;;;;;;13.13;10.30;;;;;;;;;;5034350;28;20443;-56
2023/09/17 07:03:14;;;;;;;11.98;9.57;;;;;;;;;;5035675;28;20967;-56
2023/09/17 07:05:40;;;;;;;11.45;9.30;;;;;;;;;;5023998;28;20889;-57
2023/09/17 07:08:06;;;;;;;10.93;9.52;;;;;;;;;;5031046;28;20411;-58
2023/09/17 07:10:32;;;;;;;12.43;10.07;;;;;;;;;;5037248;28;20413;-57
2023/09/17 07:12:57;;;;;;;11.38;9.80;;;;;;;;;;5032692;28;20448;-56
2023/09/17 07:15:25;;;;;;;11.83;8.97;;;;;;;;;;5030683;28;20488;-56
2023/09/17 07:17:50;;;;;;;11.27;9.13;;;;;;;;;;5042033;28;20420;-56
2023/09/17 07:20:16;;;;;;;10.87;9.00;;;;;;;;;;5039449;28;20402;-56
2023/09/17 07:22:41;;;;;;;10.90;9.57;;;;;;;;;;5043114;28;20432;-56
2023/09/17 07:25:07;;;;;;;11.60;9.27;;;;;;;;;;5037834;28;20428;-56
2023/09/17 07:27:32;;;;;;;10.45;9.35;;;;;;;;;;5038545;28;20412;-57
2023/09/17 07:29:57;;;;;;;12.52;9.60;;;;;;;;;;5021560;28;20416;-56
2023/09/17 07:32:26;;;;;;;11.53;9.13;;;;;;;;;;5012766;28;20767;-57
2023/09/17 07:34:52;;;;;;;13.10;9.23;;;;;;;;;;5021982;28;20913;-57
2023/09/17 07:37:19;;;;;;;10.97;8.80;;;;;;;;;;5020670;28;20416;-57
2023/09/17 07:39:46;;;;;;;12.90;9.20;;;;;;;;;;5023376;28;20433;-57
2023/09/17 07:42:11;;;;;;;11.75;9.13;;;;;;;;;;5023872;28;20399;-57
2023/09/17 07:44:37;;;;;;;11.27;9.27;;;;;;;;;;5017915;28;20945;-57
2023/09/17 07:47:02;;;;;;;12.33;10.40;;;;;;;;;;5008997;28;20421;-57
2023/09/17 07:49:28;;;;;;;13.37;10.90;;;;;;;;;;5023584;28;20472;-56
2023/09/17 07:51:53;;;;;;;13.82;11.15;;;;;;;;;;5031987;28;20769;-57
2023/09/17 07:54:19;;;;;;;12.90;10.53;;;;;;;;;;5030298;28;20420;-58
2023/09/17 07:56:44;;;;;;;12.40;10.60;;;;;;;;;;5031984;28;20907;-57
2023/09/17 07:59:10;;;;;;;12.50;10.97;;;;;;;;;;5031839;28;20415;-57
2023/09/17 08:01:35;;;;;;;12.95;11.55;;;;;;;;;;5031025;28;20399;-57
2023/09/17 08:04:00;;;;;;;13.82;11.30;;;;;;;;;;5034271;28;20424;-57
2023/09/17 08:06:26;;;;;;;14.00;12.27;;;;;;;;;;5014157;28;20397;-56
2023/09/17 08:08:51;;;;;;;13.70;11.87;;;;;;;;;;5031073;28;20421;-56
2023/09/17 08:11:19;;;;;;;15.53;12.00;;;;;;;;;;5020747;28;20399;-57
2023/09/17 08:13:44;;;;;;;14.87;12.80;;;;;;;;;;5009839;28;20405;-57
2023/09/17 08:16:09;;;;;;;16.10;14.27;;;;;;;;;;5013333;28;20920;-57
2023/09/17 08:18:35;;;;;;;16.50;14.13;;;;;;;;;;5021536;28;20491;-57
2023/09/17 08:21:00;;;;;;;17.53;14.77;;;;;;;;;;5026883;28;20413;-57
2023/09/17 08:23:26;;;;;;;18.60;15.90;;;;;;;;;;5019565;28;20416;-57
2023/09/17 08:25:52;;;;;;;19.53;16.30;;;;;;;;;;5014431;28;20451;-57
2023/09/17 08:28:18;;;;;;;20.35;17.60;;;;;;;;;;5010322;28;20426;-57
2023/09/17 08:30:43;;;;;;;21.17;17.53;;;;;;;;;;5031759;28;20387;-57
2023/09/17 08:33:10;;;;;;;21.23;18.03;;;;;;;;;;5027780;28;20407;-57
2023/09/17 08:35:36;;;;;;;24.48;19.38;;;;;;;;;;5028171;28;20467;-57
2023/09/17 08:38:01;;;;;;;23.90;20.13;;;;;;;;;;5023141;28;20407;-58
2023/09/17 08:40:27;;;;;;;22.33;19.20;;;;;;;;;;5021538;28;20412;-57
2023/09/17 08:42:53;;;;;;;27.23;21.30;;;;;;;;;;5018822;28;20410;-57
2023/09/17 08:45:18;;;;;;;26.08;21.27;;;;;;;;;;5022804;28;20407;-57
2023/09/17 08:47:43;;;;;;;25.70;21.53;;;;;;;;;;5015660;28;20488;-57
2023/09/17 08:50:09;;;;;;;26.43;21.57;;;;;;;;;;5016360;28;20457;-57
2023/09/17 08:52:34;;;;;;;28.07;23.03;;;;;;;;;;5023358;28;20822;-57
2023/09/17 08:55:01;;;;;;;27.77;22.80;;;;;;;;;;5023518;28;20407;-57
2023/09/17 08:57:27;;;;;;;27.73;23.80;;;;;;;;;;5018562;28;20453;-57
2023/09/17 08:59:57;;;;;;;26.52;22.42;;;;;;;;;;5029178;28;20416;-56
2023/09/17 09:02:25;;;;;;;28.37;22.70;;;;;;;;;;5033321;28;20911;-57
2023/09/17 09:04:51;;;;;;;27.00;22.00;;;;;;;;;;5032561;28;20425;-57
2023/09/17 09:07:17;;;;;;;27.00;22.95;;;;;;;;;;5017683;28;20438;-56
2023/09/17 09:09:43;;;;;;;27.67;22.80;;;;;;;;;;5021710;28;20425;-57
2023/09/17 09:12:08;;;;;;;26.40;22.55;;;;;;;;;;5022251;28;20399;-57
2023/09/17 09:14:33;;;;;;;25.98;22.17;;;;;;;;;;5018038;28;20846;-57
2023/09/17 09:17:00;;;;;;;27.87;22.53;;;;;;;;;;5030089;28;20473;-57
2023/09/17 09:19:25;;;;;;;26.20;22.45;;;;;;;;;;5019993;28;20543;-57
2023/09/17 09:21:51;;;;;;;28.13;22.53;;;;;;;;;;5029057;28;20897;-57
2023/09/17 09:24:16;;;;;;;25.38;22.05;;;;;;;;;;5028848;28;20415;-57
2023/09/17 09:26:42;;;;;;;25.10;22.23;;;;;;;;;;5037473;28;21123;-57
2023/09/17 09:29:08;;;;;;;26.70;23.40;;;;;;;;;;5034858;28;20393;-57
2023/09/17 09:31:34;;;;;;;30.63;24.13;;;;;;;;;;5017439;28;20464;-56
2023/09/17 09:33:59;;;;;;;28.50;24.25;;;;;;;;;;4996928;28;20421;-56
2023/09/17 09:36:27;;;;;;;26.10;22.90;;;;;;;;;;4998766;28;21210;-57
2023/09/17 09:38:52;;;;;;;25.42;22.13;;;;;;;;;;5002595;28;20413;-57
2023/09/17 09:41:17;;;;;;;27.30;22.70;;;;;;;;;;5007688;28;20421;-57
2023/09/17 09:43:42;;;;;;;27.03;22.50;;;;;;;;;;5009758;28;20487;-57
2023/09/17 09:46:08;;;;;;;26.13;23.23;;;;;;;;;;5011627;28;20464;-57
2023/09/17 09:48:40;;;;;;;27.13;23.33;;;;;;;;;;5017880;28;20468;-56
2023/09/17 09:51:06;;;;;;;26.80;23.90;;;;;;;;;;4998834;28;20473;-57
2023/09/17 09:53:31;;;;;;;25.47;22.87;;;;;;;;;;4993547;28;20793;-57
2023/09/17 09:55:57;;;;;;;25.50;22.30;;;;;;;;;;4995881;28;20979;-56
2023/09/17 09:58:22;;;;;;;25.80;22.50;;;;;;;;;;4987064;28;20402;-56
2023/09/17 10:00:47;;;;;;;25.63;22.88;;;;;;;;;;4994748;28;20414;-57
2023/09/17 10:03:13;;;;;;;23.98;21.08;;;;;;;;;;4985731;28;20421;-57
2023/09/17 10:05:40;;;;;;;27.67;23.37;;;;;;;;;;5001757;28;20442;-57
2023/09/17 10:08:12;;;;;;;26.83;23.35;;;;;;;;;;4996903;28;20423;-57
2023/09/17 10:10:37;;;;;;;26.53;23.07;;;;;;;;;;4995376;28;20400;-57
2023/09/17 10:13:05;;;;;;;27.92;24.05;;;;;;;;;;4998403;28;20487;-56
2023/09/17 10:15:31;;;;;;;25.85;23.08;;;;;;;;;;5016909;28;20465;-57
2023/09/17 10:17:56;;;;;;;25.75;23.08;;;;;;;;;;5001458;28;21034;-56
2023/09/17 10:20:22;;;;;;;30.07;24.70;;;;;;;;;;4978433;28;20447;-57
2023/09/17 10:22:47;;;;;;;27.77;24.07;;;;;;;;;;4998837;28;20956;-56
2023/09/17 10:25:14;;;;;;;27.70;24.47;;;;;;;;;;5000609;28;20400;-57
2023/09/17 10:27:39;;;;;;;28.75;24.85;;;;;;;;;;5017564;28;20415;-56
2023/09/17 10:30:06;;;;;;;27.03;24.07;;;;;;;;;;5016128;28;20857;-57
2023/09/17 10:32:32;;;;;;;27.55;24.42;;;;;;;;;;5008396;28;20897;-57
2023/09/17 10:34:57;;;;;;;29.27;25.30;;;;;;;;;;5009976;28;20408;-57
2023/09/17 10:37:22;;;;;;;29.57;25.03;;;;;;;;;;5010593;28;20484;-57
2023/09/17 10:39:47;;;;;;;28.93;25.83;;;;;;;;;;5011200;28;20423;-57
2023/09/17 10:42:13;;;;;;;27.00;23.17;;;;;;;;;;5006360;28;20437;-57
2023/09/17 10:44:39;;;;;;;29.90;25.07;;;;;;;;;;5020880;28;20781;-56
2023/09/17 10:47:07;;;;;;;24.48;21.88;;;;;;;;;;5031460;28;20407;-57
2023/09/17 10:49:32;;;;;;;27.38;23.75;;;;;;;;;;5030389;28;20395;-56
2023/09/17 10:51:57;;;;;;;28.53;24.83;;;;;;;;;;5031890;28;20482;-57
2023/09/17 10:54:22;;;;;;;31.70;26.57;;;;;;;;;;5030104;28;20387;-57
2023/09/17 10:56:48;;;;;;;28.13;24.57;;;;;;;;;;5031056;28;20407;-57
2023/09/17 10:59:14;;;;;;;27.33;24.13;;;;;;;;;;5031428;28;20426;-57
2023/09/17 11:01:41;;;;;;;29.98;25.73;;;;;;;;;;5031691;28;20886;-57
2023/09/17 11:04:07;;;;;;;28.47;24.73;;;;;;;;;;5030093;28;20442;-57
2023/09/17 11:06:34;;;;;;;28.67;24.67;;;;;;;;;;5031556;28;20399;-57
2023/09/17 11:08:59;;;;;;;24.73;21.75;;;;;;;;;;5030219;28;20953;-57
2023/09/17 11:11:25;;;;;;;27.80;23.87;;;;;;;;;;5028992;28;20533;-57
2023/09/17 11:13:52;;;;;;;28.63;24.70;;;;;;;;;;5030175;28;20465;-57
2023/09/17 11:16:18;;;;;;;27.77;23.25;;;;;;;;;;5029736;28;20392;-57
2023/09/17 11:18:45;;;;;;;28.55;23.58;;;;;;;;;;5030272;28;20391;-57
2023/09/17 11:21:12;;;;;;;28.58;23.85;;;;;;;;;;5030722;28;20410;-57
2023/09/17 11:23:43;;;;;;;27.60;23.83;;;;;;;;;;5030977;28;20417;-56
2023/09/17 11:26:08;;;;;;;29.48;23.73;;;;;;;;;;5030734;28;20438;-57
2023/09/17 11:28:36;;;;;;;29.53;24.87;;;;;;;;;;5031295;28;20399;-57
2023/09/17 11:31:02;;;;;;;27.85;24.20;;;;;;;;;;5029799;28;20917;-57
2023/09/17 11:33:27;;;;;;;27.55;23.05;;;;;;;;;;5038966;28;20382;-57
2023/09/17 11:35:53;;;;;;;28.98;23.23;;;;;;;;;;5040890;28;21019;-57
2023/09/17 11:38:25;;;;;;;29.43;25.03;;;;;;;;;;5009837;28;20408;-57
2023/09/17 11:41:00;;;;;;;28.75;24.80;;;;;;;;;;5012245;28;20436;-57
2023/09/17 11:43:26;;;;;;;31.60;25.65;;;;;;;;;;5010003;28;20920;-57
2023/09/17 11:45:51;;;;;;;29.10;24.50;;;;;;;;;;4990750;28;20410;-57
2023/09/17 11:48:16;;;;;;;29.93;26.70;;;;;;;;;;5001260;28;20808;-57
2023/09/17 11:50:42;;;;;;;29.57;25.70;;;;;;;;;;5010520;28;20399;-57
2023/09/17 11:53:07;;;;;;;28.98;25.85;;;;;;;;;;5009704;28;20401;-57
2023/09/17 11:55:34;;;;;;;27.27;23.17;;;;;;;;;;5010950;28;20520;-57
2023/09/17 11:58:14;;;;;;;29.52;23.63;;;;;;;;;;5011096;28;20914;-57
2023/09/17 12:00:39;;;;;;;30.77;26.23;;;;;;;;;;5020312;28;20393;-57
2023/09/17 12:03:05;;;;;;;27.97;24.47;;;;;;;;;;5041390;28;20851;-56
2023/09/17 12:05:30;;;;;;;26.90;23.73;;;;;;;;;;5018322;28;20431;-57
2023/09/17 12:07:55;;;;;;;28.03;23.80;;;;;;;;;;5024780;28;20437;-57
2023/09/17 12:10:26;;;;;;;29.47;24.37;;;;;;;;;;5023950;28;20464;-57
2023/09/17 12:12:52;;;;;;;29.70;25.33;;;;;;;;;;5030141;28;20892;-57
2023/09/17 12:15:18;;;;;;;29.30;25.27;;;;;;;;;;5031940;28;20418;-57
2023/09/17 12:17:44;;;;;;;28.50;24.58;;;;;;;;;;5031744;28;20390;-57
2023/09/17 12:20:20;;;;;;;27.80;24.90;;;;;;;;;;5027710;28;20772;-57
2023/09/17 12:22:53;;;;;;;26.98;23.98;;;;;;;;;;5025468;28;20482;-57
2023/09/17 12:25:19;;;;;;;29.98;25.20;;;;;;;;;;5022859;28;20484;-57
2023/09/17 12:27:46;;;;;;;29.30;24.50;;;;;;;;;;5022210;28;20908;-57
2023/09/17 12:30:12;;;;;;;27.88;24.05;;;;;;;;;;5019533;28;20760;-57
2023/09/17 12:32:38;;;;;;;25.30;22.50;;;;;;;;;;5030433;28;20897;-57
2023/09/17 12:35:04;;;;;;;26.10;23.02;;;;;;;;;;5019698;28;20406;-57
2023/09/17 12:37:30;;;;;;;26.75;22.95;;;;;;;;;;5016118;28;20492;-56
2023/09/17 12:39:56;;;;;;;25.40;21.92;;;;;;;;;;5027033;28;20444;-57
2023/09/17 12:42:22;;;;;;;25.58;22.30;;;;;;;;;;5029862;28;20396;-57
2023/09/17 12:44:47;;;;;;;24.52;21.85;;;;;;;;;;5030652;28;20421;-57
2023/09/17 12:47:13;;;;;;;24.30;21.37;;;;;;;;;;5028084;28;20425;-57
2023/09/17 12:49:38;;;;;;;23.57;21.03;;;;;;;;;;5009900;28;20400;-57
2023/09/17 12:52:04;;;;;;;26.67;21.73;;;;;;;;;;5017413;28;20416;-56
2023/09/17 12:54:29;;;;;;;24.27;21.63;;;;;;;;;;5023058;28;20407;-58
2023/09/17 12:56:55;;;;;;;25.13;22.25;;;;;;;;;;5021671;28;20956;-58
2023/09/17 12:59:33;;;;;;;24.87;21.93;;;;;;;;;;5016170;28;20382;-58
2023/09/17 13:01:59;;;;;;;26.48;23.58;;;;;;;;;;5024304;28;20403;-58
2023/09/17 13:04:32;;;;;;;26.63;23.67;;;;;;;;;;5026128;28;21219;-58
2023/09/17 13:06:58;;;;;;;29.23;24.63;;;;;;;;;;5025660;28;20418;-58
2023/09/17 13:09:23;;;;;;;26.20;23.23;;;;;;;;;;5022546;28;20411;-58
2023/09/17 13:11:52;;;;;;;27.27;24.10;;;;;;;;;;5027230;28;20409;-58
2023/09/17 13:14:18;;;;;;;24.77;22.17;;;;;;;;;;5029423;28;20407;-59
2023/09/17 13:16:43;;;;;;;24.53;21.77;;;;;;;;;;5031873;28;20740;-58
2023/09/17 13:19:08;;;;;;;23.33;20.83;;;;;;;;;;5022818;28;20407;-58
2023/09/17 13:21:34;;;;;;;22.43;20.03;;;;;;;;;;5025267;28;20399;-58
2023/09/17 13:24:00;;;;;;;21.70;19.00;;;;;;;;;;5024927;28;20414;-58
2023/09/17 13:26:26;;;;;;;22.33;19.55;;;;;;;;;;5027168;28;20420;-58
2023/09/17 13:28:52;;;;;;;19.73;17.63;;;;;;;;;;5036314;28;20904;-58
2023/09/17 13:31:17;;;;;;;20.35;18.15;;;;;;;;;;5034688;28;20437;-58
2023/09/17 13:33:44;;;;;;;21.87;18.07;;;;;;;;;;5034176;28;20938;-58
2023/09/17 13:36:09;;;;;;;21.23;17.38;;;;;;;;;;5021407;28;20414;-59
2023/09/17 13:38:34;;;;;;;18.85;16.63;;;;;;;;;;5031696;28;20402;-58
2023/09/17 13:41:00;;;;;;;19.45;17.33;;;;;;;;;;5027851;28;20481;-58
2023/09/17 13:43:25;;;;;;;19.30;16.63;;;;;;;;;;5028201;28;20519;-58
2023/09/17 13:45:51;;;;;;;19.52;16.45;;;;;;;;;;5020969;28;20869;-58
2023/09/17 13:48:17;;;;;;;18.73;16.67;;;;;;;;;;5025245;28;20405;-58
2023/09/17 13:50:42;;;;;;;19.10;16.85;;;;;;;;;;5031826;28;20389;-58
2023/09/17 13:53:08;;;;;;;19.87;16.73;;;;;;;;;;5032055;28;20405;-59
2023/09/17 13:55:33;;;;;;;19.10;17.00;;;;;;;;;;5032859;28;20912;-58
2023/09/17 13:57:58;;;;;;;20.00;17.03;;;;;;;;;;5026280;28;20477;-58
2023/09/17 14:00:24;;;;;;;19.37;16.70;;;;;;;;;;5023856;28;20762;-58
2023/09/17 14:02:49;;;;;;;20.70;17.13;;;;;;;;;;5022184;28;20417;-58
2023/09/17 14:05:14;;;;;;;19.77;16.70;;;;;;;;;;5025058;28;20473;-59
2023/09/17 14:07:40;;;;;;;21.60;17.47;;;;;;;;;;5025225;28;20410;-58
2023/09/17 14:10:06;;;;;;;19.13;16.38;;;;;;;;;;5020999;28;20415;-58